Terminal Aerodrome Forecast
Issued by NWS Pittsburgh, PA

Current Version | Previous Version | Graphics & Text | Print | Product List | Glossary On
Versions: 1 2 3 4 5 6 7 8 9 10 11 12 13 14 15 16 17 18 19 20 21 22 23 24 25 26 27 28 29 30 31 32 33
627
FTUS41 KPBZ 291456 AAA
TAFPIT
TAF AMD
KPIT 291456Z 2915/3018 09010KT P6SM -RA OVC015
     FM291900 09010G19KT 6SM -SHRA OVC025
     FM300000 09012G20KT 3SM -SHRA BR OVC015
     FM300800 09011KT P6SM VCSH OVC035=

USA.gov is the U.S. government's official web portal to all federal, state and local government web resources and services.